createdAt,value
2022-12-03T00:02:11.883Z,21.87
2022-12-03T00:04:38.306Z,22.08
2022-12-03T00:07:04.924Z,22.00
2022-12-03T00:09:31.377Z,21.92
2022-12-03T00:11:57.774Z,21.97
2022-12-03T00:14:24.116Z,22.02
2022-12-03T00:16:50.467Z,22.05
2022-12-03T00:19:16.823Z,22.16
2022-12-03T00:21:43.211Z,22.69
2022-12-03T00:24:09.569Z,22.42
2022-12-03T00:26:35.975Z,22.30
2022-12-03T00:29:02.358Z,22.54
2022-12-03T00:31:28.791Z,22.49
2022-12-03T00:33:55.171Z,23.38
2022-12-03T00:36:21.550Z,23.29
2022-12-03T00:38:47.957Z,23.45
2022-12-03T00:41:14.388Z,23.56
2022-12-03T00:43:40.747Z,23.97
2022-12-03T00:46:07.142Z,23.37
2022-12-03T00:48:33.569Z,23.58
2022-12-03T00:50:59.908Z,23.62
2022-12-03T00:53:26.295Z,23.90
2022-12-03T00:55:52.708Z,23.62
2022-12-03T00:58:19.090Z,23.86
2022-12-03T01:00:45.480Z,24.17
2022-12-03T01:03:11.856Z,24.33
2022-12-03T01:05:38.211Z,23.57
2022-12-03T01:08:04.681Z,23.23
2022-12-03T01:10:31.099Z,23.38
2022-12-03T01:12:57.457Z,23.67
2022-12-03T01:15:23.838Z,23.70
2022-12-03T01:17:50.239Z,23.99
2022-12-03T01:20:16.624Z,24.25
2022-12-03T01:22:43.013Z,24.41
2022-12-03T01:25:09.358Z,24.70
2022-12-03T01:27:35.736Z,24.40
2022-12-03T01:30:02.141Z,24.50
2022-12-03T01:32:28.487Z,24.60
2022-12-03T01:34:55.279Z,24.06
2022-12-03T01:37:21.979Z,23.22
2022-12-03T01:39:48.361Z,23.65
2022-12-03T01:42:14.717Z,24.27
2022-12-03T01:44:41.112Z,23.75
2022-12-03T01:47:07.559Z,24.24
2022-12-03T01:49:33.976Z,23.82
2022-12-03T01:52:00.364Z,23.17
2022-12-03T01:54:26.722Z,24.11
2022-12-03T01:56:53.075Z,23.38
2022-12-03T01:59:19.420Z,24.28
2022-12-03T02:01:45.843Z,24.23
2022-12-03T02:04:12.267Z,23.24
2022-12-03T02:06:38.717Z,23.52
2022-12-03T02:09:05.058Z,23.38
2022-12-03T02:11:31.385Z,23.53
2022-12-03T02:13:57.794Z,23.39
2022-12-03T02:16:24.216Z,23.93
2022-12-03T02:18:50.663Z,23.88
2022-12-03T02:21:17.077Z,24.30
2022-12-03T02:23:43.429Z,24.29
2022-12-03T02:26:09.807Z,23.74
2022-12-03T02:28:36.156Z,23.48
2022-12-03T02:31:02.580Z,24.02
2022-12-03T02:33:29.003Z,23.29
2022-12-03T02:35:59.105Z,23.69
2022-12-03T02:38:28.415Z,23.58
2022-12-03T02:40:54.766Z,23.53
2022-12-03T02:43:21.138Z,23.66
2022-12-03T02:45:47.487Z,23.99
2022-12-03T02:48:13.862Z,24.90
2022-12-03T02:50:40.274Z,24.75
2022-12-03T02:53:06.632Z,24.79
2022-12-03T02:55:48.047Z,24.69
2022-12-03T02:58:14.442Z,25.08
2022-12-03T03:00:40.848Z,23.99
2022-12-03T03:03:07.256Z,24.30
2022-12-03T03:05:33.617Z,24.38
2022-12-03T03:08:00.133Z,24.29
2022-12-03T03:10:26.595Z,23.54
2022-12-03T03:12:52.987Z,23.42
2022-12-03T03:15:19.384Z,23.69
2022-12-03T03:17:45.735Z,23.95
2022-12-03T03:20:12.091Z,23.15
2022-12-03T03:22:38.473Z,23.75
2022-12-03T03:25:04.863Z,23.65
2022-12-03T03:27:31.259Z,23.41
2022-12-03T03:29:57.606Z,22.89
2022-12-03T03:32:23.983Z,22.41
2022-12-03T03:34:50.524Z,22.38
2022-12-03T03:37:16.935Z,22.60
2022-12-03T03:39:43.279Z,22.38
2022-12-03T03:42:09.632Z,22.17
2022-12-03T03:44:35.967Z,21.87
2022-12-03T03:47:02.349Z,21.82
2022-12-03T03:49:28.749Z,22.05
2022-12-03T03:51:55.096Z,22.29
2022-12-03T03:54:21.446Z,22.60
2022-12-03T03:56:47.780Z,23.59
2022-12-03T03:59:14.159Z,22.37
2022-12-03T04:01:40.600Z,22.33
2022-12-03T04:04:07.055Z,22.66
2022-12-03T04:06:33.450Z,23.15
2022-12-03T04:08:59.806Z,22.83
2022-12-03T04:11:26.206Z,23.51
2022-12-03T04:13:52.597Z,24.30
2022-12-03T04:16:19.035Z,23.67
2022-12-03T04:18:45.444Z,23.84
2022-12-03T04:21:11.845Z,24.06
2022-12-03T04:23:38.238Z,24.44
2022-12-03T04:26:04.576Z,23.94
2022-12-03T04:28:30.903Z,25.34
2022-12-03T04:30:57.298Z,26.16
2022-12-03T04:33:23.722Z,26.01
2022-12-03T04:35:50.160Z,26.05
2022-12-03T04:38:16.581Z,25.91
2022-12-03T04:40:42.961Z,25.37
2022-12-03T04:43:09.342Z,25.92
2022-12-03T04:45:35.822Z,25.61
2022-12-03T04:48:02.224Z,25.37
2022-12-03T04:50:28.614Z,25.30
2022-12-03T04:52:54.972Z,25.07
2022-12-03T04:55:21.302Z,24.54
2022-12-03T04:57:47.643Z,24.41
2022-12-03T05:00:13.991Z,23.12
2022-12-03T05:02:40.436Z,21.74
2022-12-03T05:05:06.872Z,21.76
2022-12-03T05:07:33.308Z,21.48
2022-12-03T05:09:59.749Z,21.34
2022-12-03T05:12:26.097Z,21.26
2022-12-03T05:14:52.689Z,21.57
2022-12-03T05:17:19.254Z,22.23
2022-12-03T05:19:45.583Z,21.78
2022-12-03T05:22:11.975Z,21.14
2022-12-03T05:24:38.357Z,21.26
2022-12-03T05:27:04.703Z,21.56
2022-12-03T05:29:31.047Z,21.57
2022-12-03T05:31:57.429Z,20.92
2022-12-03T05:34:23.838Z,21.47
2022-12-03T05:36:50.227Z,21.00
2022-12-03T05:39:16.582Z,20.82
2022-12-03T05:41:42.914Z,21.38
2022-12-03T05:44:09.289Z,21.01
2022-12-03T05:46:35.701Z,22.10
2022-12-03T05:49:02.114Z,21.04
2022-12-03T05:51:28.509Z,21.17
2022-12-03T05:53:54.870Z,21.48
2022-12-03T05:56:21.241Z,22.03
2022-12-03T05:58:47.698Z,22.00
2022-12-03T06:01:14.051Z,21.32
2022-12-03T06:03:40.560Z,20.92
2022-12-03T06:06:07.054Z,21.24
2022-12-03T06:08:33.418Z,21.57
2022-12-03T06:10:59.761Z,21.70
2022-12-03T06:13:26.109Z,21.12
2022-12-03T06:15:52.542Z,20.72
2022-12-03T06:18:18.931Z,22.45
2022-12-03T06:20:45.314Z,22.10
2022-12-03T06:23:11.692Z,22.18
2022-12-03T06:25:38.046Z,22.74
2022-12-03T06:28:04.427Z,21.51
2022-12-03T06:30:30.782Z,20.73
2022-12-03T06:32:57.110Z,20.75
2022-12-03T06:35:23.474Z,20.64
2022-12-03T06:37:49.808Z,21.51
2022-12-03T06:40:16.164Z,21.18
2022-12-03T06:42:42.498Z,21.19
2022-12-03T06:45:08.881Z,20.70
2022-12-03T06:47:35.341Z,20.73
2022-12-03T06:50:01.693Z,21.62
2022-12-03T06:52:28.062Z,20.69
2022-12-03T06:54:54.638Z,21.68
2022-12-03T06:57:21.153Z,20.84
2022-12-03T06:59:47.507Z,20.67
2022-12-03T07:02:13.943Z,21.19
2022-12-03T07:04:44.808Z,20.93
2022-12-03T07:07:12.695Z,20.62
2022-12-03T07:09:39.079Z,21.24
2022-12-03T07:12:05.480Z,20.41
2022-12-03T07:14:31.839Z,21.27
2022-12-03T07:16:58.171Z,20.50
2022-12-03T07:19:30.700Z,20.91
2022-12-03T07:21:58.790Z,20.99
2022-12-03T07:24:25.160Z,21.04
2022-12-03T07:26:51.510Z,21.60
2022-12-03T07:29:18.034Z,21.44
2022-12-03T07:31:44.518Z,21.29
2022-12-03T07:34:10.939Z,21.19
2022-12-03T07:36:37.293Z,21.93
2022-12-03T07:39:03.688Z,20.95
2022-12-03T07:41:30.038Z,21.60
2022-12-03T07:43:56.381Z,21.25
2022-12-03T07:46:22.779Z,21.48
2022-12-03T07:48:49.161Z,23.71
2022-12-03T07:51:15.792Z,21.80
2022-12-03T07:53:42.189Z,21.73
2022-12-03T07:56:08.590Z,21.11
2022-12-03T07:58:34.940Z,21.94
2022-12-03T08:01:01.409Z,21.84
2022-12-03T08:03:27.845Z,21.13
2022-12-03T08:05:54.238Z,20.89
2022-12-03T08:08:20.674Z,21.37
2022-12-03T08:10:47.061Z,20.15
2022-12-03T08:13:13.406Z,20.59
2022-12-03T08:15:39.930Z,20.81
2022-12-03T08:18:06.297Z,21.09
2022-12-03T08:20:32.667Z,20.82
2022-12-03T08:22:59.086Z,20.82
2022-12-03T08:25:25.434Z,22.95
2022-12-03T08:27:51.780Z,23.02
2022-12-03T08:30:18.157Z,21.60
2022-12-03T08:32:44.516Z,21.86
2022-12-03T08:35:10.901Z,23.36
2022-12-03T08:37:37.266Z,26.65
2022-12-03T08:40:03.637Z,23.57
2022-12-03T08:42:30.399Z,22.89
2022-12-03T08:44:57.429Z,22.49
2022-12-03T08:47:24.053Z,22.35
2022-12-03T08:49:50.462Z,22.31
2022-12-03T08:52:16.850Z,22.27
2022-12-03T08:54:43.207Z,21.96
2022-12-03T08:57:09.586Z,22.40
2022-12-03T08:59:35.987Z,23.08
2022-12-03T09:02:02.327Z,21.57
2022-12-03T09:04:28.748Z,22.27
2022-12-03T09:06:55.169Z,21.90
2022-12-03T09:09:21.525Z,21.34
2022-12-03T09:11:47.923Z,21.48
2022-12-03T09:14:18.443Z,21.62
2022-12-03T09:16:45.207Z,21.52
2022-12-03T09:19:11.649Z,21.95
2022-12-03T09:21:38.011Z,21.85
2022-12-03T09:24:04.419Z,22.54
2022-12-03T09:26:30.827Z,21.95
2022-12-03T09:28:57.259Z,23.62
2022-12-03T09:31:23.651Z,21.92
2022-12-03T09:33:50.093Z,22.26
2022-12-03T09:36:16.494Z,21.14
2022-12-03T09:38:46.211Z,22.14
2022-12-03T09:41:14.372Z,21.68
2022-12-03T09:44:03.389Z,20.95
2022-12-03T09:46:27.141Z,20.50
2022-12-03T09:48:53.546Z,20.47
2022-12-03T09:51:19.895Z,20.90
2022-12-03T09:53:46.255Z,19.42
2022-12-03T09:56:12.616Z,20.63
2022-12-03T09:58:39.024Z,20.18
2022-12-03T10:01:05.446Z,20.33
2022-12-03T10:03:31.868Z,20.77
2022-12-03T10:05:58.272Z,20.74
2022-12-03T10:08:29.355Z,21.08
2022-12-03T10:10:58.301Z,20.39
2022-12-03T10:13:26.072Z,21.48
2022-12-03T10:15:52.600Z,22.97
2022-12-03T10:18:18.987Z,22.32
2022-12-03T10:20:45.362Z,23.44
2022-12-03T10:23:11.712Z,23.02
2022-12-03T10:25:38.067Z,23.39
2022-12-03T10:28:04.446Z,23.85
2022-12-03T10:30:30.885Z,23.55
2022-12-03T10:32:57.317Z,23.53
2022-12-03T10:35:23.671Z,24.02
2022-12-03T10:37:50.042Z,24.29
2022-12-03T10:40:16.381Z,23.24
2022-12-03T10:42:42.721Z,22.38
2022-12-03T10:45:09.131Z,22.34
2022-12-03T10:47:35.604Z,22.38
2022-12-03T10:50:02.032Z,22.04
2022-12-03T10:52:28.387Z,22.31
2022-12-03T10:54:54.829Z,21.34
2022-12-03T10:57:21.454Z,20.51
2022-12-03T10:59:47.833Z,19.98
2022-12-03T11:02:14.187Z,21.47
2022-12-03T11:04:40.566Z,21.06
2022-12-03T11:07:06.931Z,21.48
2022-12-03T11:09:33.308Z,22.85
2022-12-03T11:11:59.699Z,22.61
2022-12-03T11:14:26.101Z,21.32
2022-12-03T11:16:52.506Z,19.81
2022-12-03T11:19:18.853Z,20.97
2022-12-03T11:21:45.206Z,20.52
2022-12-03T11:24:11.561Z,20.59
2022-12-03T11:26:38.503Z,19.48
2022-12-03T11:29:07.220Z,20.47
2022-12-03T11:31:33.653Z,20.54
2022-12-03T11:34:00.015Z,21.18
2022-12-03T11:36:47.638Z,20.04
2022-12-03T11:39:12.826Z,20.68
2022-12-03T11:41:39.216Z,20.40
2022-12-03T11:44:05.564Z,22.18
2022-12-03T11:46:32.018Z,23.76
2022-12-03T11:48:58.436Z,21.30
2022-12-03T11:51:24.787Z,19.99
2022-12-03T11:53:51.140Z,19.84
2022-12-03T11:56:17.488Z,19.99
2022-12-03T11:58:43.861Z,22.13
2022-12-03T12:01:10.239Z,22.76
2022-12-03T12:03:36.683Z,20.49
2022-12-03T12:06:03.138Z,21.32
2022-12-03T12:08:29.574Z,21.79
2022-12-03T12:10:56.001Z,20.80
2022-12-03T12:13:22.384Z,20.48
2022-12-03T12:15:48.843Z,20.70
2022-12-03T12:18:15.228Z,20.40
2022-12-03T12:20:41.638Z,19.98
2022-12-03T12:23:08.021Z,20.17
2022-12-03T12:25:34.401Z,20.21
2022-12-03T12:28:00.746Z,19.90
2022-12-03T12:30:27.079Z,19.99
2022-12-03T12:32:53.410Z,20.75
2022-12-03T12:35:19.782Z,19.85
2022-12-03T12:37:47.744Z,19.72
2022-12-03T12:40:14.982Z,20.08
2022-12-03T12:42:41.411Z,19.05
2022-12-03T12:45:07.791Z,19.13
2022-12-03T12:47:34.433Z,18.86
2022-12-03T12:50:00.911Z,20.23
2022-12-03T12:52:27.344Z,20.07
2022-12-03T12:54:53.695Z,19.46
2022-12-03T12:57:20.041Z,19.86
2022-12-03T12:59:46.373Z,20.10
2022-12-03T13:02:12.824Z,20.19
2022-12-03T13:04:39.225Z,20.09
2022-12-03T13:07:05.563Z,22.13
2022-12-03T13:09:31.984Z,20.41
2022-12-03T13:11:58.368Z,23.82
2022-12-03T13:14:24.721Z,20.62
2022-12-03T13:16:51.145Z,21.28
2022-12-03T13:19:17.616Z,20.54
2022-12-03T13:21:43.996Z,20.22
2022-12-03T13:24:10.349Z,19.88
2022-12-03T13:26:39.297Z,19.69
2022-12-03T13:29:05.955Z,19.13
2022-12-03T13:31:32.419Z,19.36
2022-12-03T13:33:58.887Z,18.79
2022-12-03T13:36:25.221Z,18.97
2022-12-03T13:38:51.597Z,18.88
2022-12-03T13:41:17.961Z,19.19
2022-12-03T13:43:44.612Z,18.73
2022-12-03T13:46:11.183Z,19.76
2022-12-03T13:48:37.613Z,21.49
2022-12-03T13:51:04.028Z,22.25
2022-12-03T13:53:30.432Z,20.85
2022-12-03T13:55:56.829Z,19.84
2022-12-03T13:58:23.216Z,21.47
2022-12-03T14:00:49.622Z,20.51
2022-12-03T14:03:16.108Z,19.27
2022-12-03T14:05:42.455Z,19.48
2022-12-03T14:08:08.868Z,19.32
2022-12-03T14:10:35.341Z,19.73
2022-12-03T14:13:01.692Z,19.50
2022-12-03T14:15:28.045Z,19.88
2022-12-03T14:17:54.426Z,20.66
2022-12-03T14:20:20.825Z,21.18
2022-12-03T14:22:47.178Z,20.81
2022-12-03T14:25:13.574Z,19.79
2022-12-03T14:27:39.922Z,18.61
2022-12-03T14:30:06.259Z,19.24
2022-12-03T14:32:32.611Z,22.76
2022-12-03T14:34:58.947Z,26.39
2022-12-03T14:37:25.318Z,27.12
2022-12-03T14:39:51.849Z,23.84
2022-12-03T14:42:18.524Z,24.24
2022-12-03T14:44:44.917Z,20.74
2022-12-03T14:47:11.300Z,20.61
2022-12-03T14:49:37.786Z,19.78
2022-12-03T14:52:04.230Z,19.65
2022-12-03T14:54:30.640Z,19.99
2022-12-03T14:56:56.999Z,20.09
2022-12-03T14:59:27.596Z,21.76
2022-12-03T15:01:54.358Z,21.72
2022-12-03T15:04:20.905Z,21.24
2022-12-03T15:06:47.295Z,20.89
2022-12-03T15:09:13.634Z,21.86
2022-12-03T15:11:45.771Z,21.20
2022-12-03T15:14:12.634Z,20.41
2022-12-03T15:16:39.105Z,20.67
2022-12-03T15:19:05.534Z,19.78
2022-12-03T15:21:31.931Z,19.57
2022-12-03T15:23:58.348Z,19.20
2022-12-03T15:26:24.738Z,20.36
2022-12-03T15:28:51.145Z,19.30
2022-12-03T15:31:17.600Z,18.27
2022-12-03T15:33:43.984Z,17.75
2022-12-03T15:36:10.387Z,18.29
2022-12-03T15:38:36.742Z,18.56
2022-12-03T15:41:03.157Z,20.01
2022-12-03T15:43:29.501Z,20.62
2022-12-03T15:45:55.887Z,20.22
2022-12-03T15:48:22.244Z,19.25
2022-12-03T15:50:48.624Z,19.06
2022-12-03T15:53:15.002Z,19.66
2022-12-03T15:55:41.382Z,20.28
2022-12-03T15:58:07.772Z,19.59
2022-12-03T16:00:34.160Z,20.32
2022-12-03T16:03:00.630Z,18.95
2022-12-03T16:05:27.034Z,18.31
2022-12-03T16:07:53.484Z,18.51
2022-12-03T16:10:19.861Z,18.33
2022-12-03T16:12:46.238Z,18.70
2022-12-03T16:15:12.592Z,18.50
2022-12-03T16:17:38.941Z,20.35
2022-12-03T16:20:05.375Z,19.52
2022-12-03T16:22:31.757Z,18.26
2022-12-03T16:24:58.107Z,18.44
2022-12-03T16:27:26.062Z,19.51
2022-12-03T16:29:52.952Z,19.64
2022-12-03T16:32:19.680Z,19.41
2022-12-03T16:34:46.070Z,19.50
2022-12-03T16:37:12.470Z,20.17
2022-12-03T16:39:38.823Z,20.32
2022-12-03T16:42:07.081Z,18.73
2022-12-03T16:44:36.800Z,18.97
2022-12-03T16:47:03.197Z,19.21
2022-12-03T16:49:29.598Z,18.23
2022-12-03T16:51:56.007Z,19.00
2022-12-03T16:54:22.391Z,21.02
2022-12-03T16:56:48.840Z,19.60
2022-12-03T16:59:15.250Z,20.50
2022-12-03T17:01:41.719Z,20.25
2022-12-03T17:04:08.161Z,19.22
2022-12-03T17:06:34.551Z,20.33
2022-12-03T17:09:00.924Z,23.77
2022-12-03T17:11:27.315Z,20.38
2022-12-03T17:13:53.718Z,18.13
2022-12-03T17:16:20.214Z,27.88
2022-12-03T17:18:46.665Z,21.15
2022-12-03T17:21:13.058Z,21.43
2022-12-03T17:23:39.462Z,20.56
2022-12-03T17:26:05.857Z,23.23
2022-12-03T17:28:34.993Z,21.43
2022-12-03T17:31:01.460Z,21.60
2022-12-03T17:33:27.890Z,22.82
2022-12-03T17:35:54.253Z,23.04
2022-12-03T17:38:20.638Z,22.34
2022-12-03T17:40:46.992Z,20.33
2022-12-03T17:43:13.376Z,19.87
2022-12-03T17:45:39.718Z,21.03
2022-12-03T17:48:06.102Z,20.70
2022-12-03T17:50:32.516Z,19.88
2022-12-03T17:52:58.920Z,18.68
2022-12-03T17:55:33.842Z,19.65
2022-12-03T17:58:03.559Z,18.65
2022-12-03T18:00:29.956Z,18.45
2022-12-03T18:02:56.333Z,20.81
2022-12-03T18:05:22.732Z,21.28
2022-12-03T18:07:49.298Z,18.02
2022-12-03T18:10:15.679Z,17.98
2022-12-03T18:12:42.063Z,18.21
2022-12-03T18:15:08.465Z,18.41
2022-12-03T18:17:34.880Z,17.20
2022-12-03T18:20:01.253Z,18.73
2022-12-03T18:22:27.641Z,19.69
2022-12-03T18:24:54.040Z,22.08
2022-12-03T18:27:20.451Z,20.23
2022-12-03T18:29:46.835Z,17.82
2022-12-03T18:32:27.716Z,18.69
2022-12-03T18:34:56.943Z,17.51
2022-12-03T18:37:23.303Z,17.92
2022-12-03T18:39:49.667Z,18.09
2022-12-03T18:42:16.023Z,18.56
2022-12-03T18:44:47.865Z,18.84
2022-12-03T18:47:15.808Z,18.75
2022-12-03T18:49:42.161Z,17.85
2022-12-03T18:52:08.508Z,18.21
2022-12-03T18:54:34.913Z,16.86
2022-12-03T18:57:01.269Z,17.40
2022-12-03T18:59:27.648Z,16.81
2022-12-03T19:01:54.085Z,17.51
2022-12-03T19:04:20.538Z,18.25
2022-12-03T19:06:46.937Z,17.61
2022-12-03T19:09:13.332Z,17.65
2022-12-03T19:11:39.689Z,18.89
2022-12-03T19:14:06.079Z,18.38
2022-12-03T19:16:32.536Z,18.35
2022-12-03T19:18:58.923Z,18.43
2022-12-03T19:21:29.391Z,18.83
2022-12-03T19:24:23.184Z,18.89
2022-12-03T19:26:45.055Z,19.11
2022-12-03T19:29:11.461Z,18.27
2022-12-03T19:31:37.938Z,19.16
2022-12-03T19:34:04.387Z,19.30
2022-12-03T19:36:30.782Z,19.99
2022-12-03T19:38:57.650Z,19.98
2022-12-03T19:41:24.053Z,20.44
2022-12-03T19:43:50.482Z,19.40
2022-12-03T19:46:16.900Z,19.49
2022-12-03T19:48:43.279Z,19.48
2022-12-03T19:51:32.974Z,21.11
2022-12-03T19:53:55.940Z,21.51
2022-12-03T19:56:22.281Z,20.43
2022-12-03T19:58:48.734Z,20.62
2022-12-03T20:01:15.128Z,19.50
2022-12-03T20:03:41.494Z,19.08
2022-12-03T20:06:07.827Z,19.29
2022-12-03T20:08:34.237Z,19.77
2022-12-03T20:11:00.631Z,18.84
2022-12-03T20:13:29.819Z,19.01
2022-12-03T20:15:58.716Z,18.99
2022-12-03T20:18:25.194Z,19.09
2022-12-03T20:20:51.594Z,19.51
2022-12-03T20:23:17.954Z,19.17
2022-12-03T20:25:44.333Z,19.77
2022-12-03T20:28:10.682Z,19.96
2022-12-03T20:30:37.052Z,22.19
2022-12-03T20:33:03.449Z,23.84
2022-12-03T20:35:29.787Z,26.67
2022-12-03T20:37:56.159Z,24.04
2022-12-03T20:40:22.502Z,21.90
2022-12-03T20:42:48.878Z,21.29
2022-12-03T20:45:15.271Z,20.83
2022-12-03T20:47:41.614Z,20.63
2022-12-03T20:50:07.952Z,20.40
2022-12-03T20:52:34.336Z,20.34
2022-12-03T20:55:00.725Z,20.89
2022-12-03T20:57:27.095Z,20.18
2022-12-03T20:59:53.741Z,20.11
2022-12-03T21:02:20.477Z,19.84
2022-12-03T21:04:47.032Z,18.82
2022-12-03T21:07:13.430Z,18.13
2022-12-03T21:09:39.841Z,19.49
2022-12-03T21:12:06.254Z,18.62
2022-12-03T21:14:32.642Z,18.41
2022-12-03T21:17:08.465Z,18.97
2022-12-03T21:19:35.417Z,20.57
2022-12-03T21:22:01.762Z,19.58
2022-12-03T21:24:28.153Z,19.58
2022-12-03T21:26:54.545Z,19.29
2022-12-03T21:29:20.953Z,19.19
2022-12-03T21:31:47.434Z,18.67
2022-12-03T21:34:13.812Z,18.48
2022-12-03T21:36:40.180Z,18.42
2022-12-03T21:39:06.549Z,18.48
2022-12-03T21:41:32.903Z,17.98
2022-12-03T21:43:59.253Z,18.31
2022-12-03T21:47:10.469Z,18.68
2022-12-03T21:49:11.999Z,18.41
2022-12-03T21:51:38.416Z,18.43
2022-12-03T21:54:04.780Z,18.14
2022-12-03T21:56:31.300Z,18.39
2022-12-03T21:58:57.658Z,18.37
2022-12-03T22:01:24.070Z,18.43
2022-12-03T22:03:50.527Z,18.84
2022-12-03T22:06:16.918Z,18.66
2022-12-03T22:08:43.274Z,18.51
2022-12-03T22:11:09.708Z,18.20
2022-12-03T22:13:36.053Z,18.59
2022-12-03T22:16:02.499Z,18.71
2022-12-03T22:18:28.871Z,18.25
2022-12-03T22:20:55.251Z,18.35
2022-12-03T22:23:21.597Z,18.59
2022-12-03T22:25:47.975Z,19.03
2022-12-03T22:28:14.324Z,19.16
2022-12-03T22:30:40.748Z,18.43
2022-12-03T22:33:07.106Z,18.84
2022-12-03T22:35:33.452Z,17.81
2022-12-03T22:37:59.841Z,20.71
2022-12-03T22:40:26.210Z,21.58
2022-12-03T22:42:52.592Z,20.31
2022-12-03T22:45:18.977Z,19.71
2022-12-03T22:47:45.363Z,23.41
2022-12-03T22:50:12.554Z,23.40
2022-12-03T22:52:38.906Z,18.73
2022-12-03T22:55:05.268Z,17.83
2022-12-03T22:57:31.628Z,17.88
2022-12-03T22:59:58.032Z,17.84
2022-12-03T23:02:24.407Z,18.19
2022-12-03T23:04:50.837Z,18.04
2022-12-03T23:07:17.228Z,17.86
2022-12-03T23:09:43.628Z,17.74
2022-12-03T23:12:09.975Z,18.41
2022-12-03T23:14:36.320Z,18.18
2022-12-03T23:17:02.692Z,19.12
2022-12-03T23:19:29.085Z,18.43
2022-12-03T23:21:55.439Z,18.94
2022-12-03T23:24:21.778Z,19.43
2022-12-03T23:26:48.098Z,18.53
2022-12-03T23:29:14.433Z,19.04
2022-12-03T23:31:40.831Z,19.05
2022-12-03T23:34:07.269Z,18.65
2022-12-03T23:36:33.636Z,18.60
2022-12-03T23:39:00.024Z,18.95
2022-12-03T23:41:26.408Z,18.99
2022-12-03T23:43:52.777Z,19.67
2022-12-03T23:46:19.187Z,24.36
2022-12-03T23:48:45.583Z,19.62
2022-12-03T23:51:11.970Z,19.23
2022-12-03T23:53:38.336Z,19.71
2022-12-03T23:56:04.674Z,19.22
2022-12-03T23:58:31.030Z,18.77
